createdAt,value
2022-12-15T00:00:18.661Z,24.10
2022-12-15T00:03:04.385Z,25.02
2022-12-15T00:05:50.042Z,21.20
2022-12-15T00:08:36.129Z,23.17
2022-12-15T00:11:23.137Z,21.88
2022-12-15T00:14:08.684Z,23.25
2022-12-15T00:16:54.243Z,19.58
2022-12-15T00:19:39.499Z,23.20
2022-12-15T00:22:25.108Z,22.27
2022-12-15T00:25:10.518Z,22.95
2022-12-15T00:27:55.889Z,21.77
2022-12-15T00:30:41.279Z,22.05
2022-12-15T00:33:30.872Z,21.98
2022-12-15T00:36:19.491Z,23.10
2022-12-15T00:38:47.451Z,23.05
2022-12-15T00:41:18.356Z,21.98
2022-12-15T00:43:46.285Z,20.00
2022-12-15T00:46:32.211Z,22.27
2022-12-15T00:48:59.454Z,21.65
2022-12-15T00:51:45.976Z,21.80
2022-12-15T00:54:31.333Z,20.98
2022-12-15T00:57:16.850Z,18.77
2022-12-15T01:00:02.371Z,21.40
2022-12-15T01:02:48.006Z,24.70
2022-12-15T01:05:33.674Z,25.90
2022-12-15T01:08:19.106Z,23.48
2022-12-15T01:11:04.599Z,24.92
2022-12-15T01:13:50.177Z,23.63
2022-12-15T01:16:36.228Z,23.15
2022-12-15T01:19:22.144Z,27.42
2022-12-15T01:21:49.622Z,22.67
2022-12-15T01:24:16.597Z,27.77
2022-12-15T01:26:43.408Z,24.13
2022-12-15T01:29:10.219Z,24.13
2022-12-15T01:31:37.096Z,25.65
2022-12-15T01:34:03.950Z,24.52
2022-12-15T01:36:30.783Z,24.80
2022-12-15T01:38:57.598Z,21.80
2022-12-15T01:41:24.858Z,22.48
2022-12-15T01:43:51.666Z,25.35
2022-12-15T01:46:23.127Z,24.52
2022-12-15T01:49:02.821Z,25.98
2022-12-15T01:51:36.498Z,27.67
2022-12-15T01:54:14.857Z,22.27
2022-12-15T01:56:47.754Z,26.25
2022-12-15T01:59:21.474Z,25.10
2022-12-15T02:01:49.571Z,21.95
2022-12-15T02:04:21.535Z,24.67
2022-12-15T02:06:48.456Z,23.38
2022-12-15T02:09:17.362Z,26.35
2022-12-15T02:11:49.823Z,22.42
2022-12-15T02:15:03.754Z,27.48
2022-12-15T02:18:04.227Z,21.10
2022-12-15T02:20:40.659Z,24.35
2022-12-15T02:23:47.459Z,24.75
2022-12-15T02:26:45.098Z,24.88
2022-12-15T02:29:47.064Z,25.45
2022-12-15T02:32:20.510Z,24.67
2022-12-15T02:35:05.692Z,26.02
2022-12-15T02:37:38.110Z,23.30
2022-12-15T02:40:09.181Z,23.65
2022-12-15T02:42:45.013Z,24.63
2022-12-15T02:45:16.765Z,23.38
2022-12-15T02:48:23.848Z,25.33
2022-12-15T02:51:24.570Z,25.65
2022-12-15T02:54:08.233Z,22.83
2022-12-15T02:57:15.893Z,22.50
2022-12-15T03:00:04.050Z,25.75
2022-12-15T03:02:34.993Z,25.52
2022-12-15T03:05:02.309Z,21.80
2022-12-15T03:07:29.186Z,23.67
2022-12-15T03:09:59.702Z,20.70
2022-12-15T03:12:27.472Z,25.38
2022-12-15T03:14:54.330Z,22.77
2022-12-15T03:17:21.130Z,23.05
2022-12-15T03:19:49.815Z,25.83
2022-12-15T03:22:16.863Z,22.88
2022-12-15T03:24:43.682Z,25.48
2022-12-15T03:27:10.690Z,27.45
2022-12-15T03:29:37.716Z,25.90
2022-12-15T03:32:05.068Z,25.48
2022-12-15T03:34:31.972Z,22.80
2022-12-15T03:36:59.164Z,20.83
2022-12-15T03:39:26.903Z,24.15
2022-12-15T03:41:53.674Z,26.23
2022-12-15T03:44:21.096Z,23.20
2022-12-15T03:46:48.025Z,23.83
2022-12-15T03:49:14.769Z,23.17
2022-12-15T03:51:41.555Z,24.05
2022-12-15T03:54:08.859Z,18.35
2022-12-15T03:56:35.687Z,24.83
2022-12-15T03:59:03.151Z,23.52
2022-12-15T04:01:35.748Z,23.00
2022-12-15T04:04:05.012Z,23.73
2022-12-15T04:06:32.350Z,26.75
2022-12-15T04:08:59.120Z,26.13
2022-12-15T04:11:26.110Z,25.52
2022-12-15T04:13:52.981Z,26.05
2022-12-15T04:16:20.524Z,21.52
2022-12-15T04:19:08.131Z,24.48
2022-12-15T04:21:35.027Z,22.83
2022-12-15T04:24:20.196Z,23.02
2022-12-15T04:27:05.657Z,24.25
2022-12-15T04:29:51.097Z,28.15
2022-12-15T04:32:36.759Z,21.27
2022-12-15T04:35:22.215Z,21.77
2022-12-15T04:38:07.716Z,24.55
2022-12-15T04:40:53.832Z,23.55
2022-12-15T04:43:39.202Z,20.70
2022-12-15T04:46:24.894Z,21.35
2022-12-15T04:49:10.291Z,21.23
2022-12-15T04:51:55.690Z,21.13
2022-12-15T04:54:41.090Z,23.30
2022-12-15T04:57:26.241Z,21.60
2022-12-15T05:00:11.745Z,21.27
2022-12-15T05:02:57.700Z,24.10
2022-12-15T05:05:43.182Z,22.25
2022-12-15T05:08:28.695Z,19.52
2022-12-15T05:11:14.315Z,24.95
2022-12-15T05:13:59.462Z,21.92
2022-12-15T05:16:44.827Z,20.58
2022-12-15T05:19:30.134Z,22.33
2022-12-15T05:22:15.502Z,21.50
2022-12-15T05:25:00.937Z,21.70
2022-12-15T05:27:46.467Z,22.17
2022-12-15T05:30:31.842Z,20.40
2022-12-15T05:33:03.986Z,20.38
2022-12-15T05:35:31.179Z,20.27
2022-12-15T05:37:57.973Z,21.77
2022-12-15T05:40:24.787Z,22.40
2022-12-15T05:42:51.534Z,22.38
2022-12-15T05:45:18.357Z,20.85
2022-12-15T05:47:52.053Z,21.48
2022-12-15T05:50:19.826Z,20.95
2022-12-15T05:52:49.530Z,21.80
2022-12-15T05:55:18.850Z,21.05
2022-12-15T05:57:52.663Z,23.73
2022-12-15T06:00:20.638Z,22.55
2022-12-15T06:02:47.473Z,22.88
2022-12-15T06:05:17.005Z,23.00
2022-12-15T06:07:43.810Z,22.67
2022-12-15T06:10:11.405Z,22.60
2022-12-15T06:12:38.349Z,20.05
2022-12-15T06:15:06.277Z,24.48
2022-12-15T06:17:33.202Z,22.30
2022-12-15T06:20:00.243Z,23.83
2022-12-15T06:22:29.684Z,25.77
2022-12-15T06:24:56.751Z,22.52
2022-12-15T06:27:23.593Z,23.85
2022-12-15T06:29:50.371Z,21.23
2022-12-15T06:32:17.260Z,22.88
2022-12-15T06:34:44.367Z,27.17
2022-12-15T06:37:11.193Z,22.67
2022-12-15T06:39:38.226Z,23.10
2022-12-15T06:42:05.092Z,21.42
2022-12-15T06:44:31.910Z,22.23
2022-12-15T06:46:58.699Z,22.10
2022-12-15T06:49:25.502Z,22.05
2022-12-15T06:51:52.252Z,22.38
2022-12-15T06:54:19.064Z,21.30
2022-12-15T06:56:45.871Z,22.40
2022-12-15T06:59:16.937Z,24.27
2022-12-15T07:01:44.186Z,21.30
2022-12-15T07:04:11.508Z,21.63
2022-12-15T07:06:39.883Z,24.80
2022-12-15T07:09:13.018Z,24.53
2022-12-15T07:11:40.415Z,23.20
2022-12-15T07:14:07.319Z,22.17
2022-12-15T07:16:34.202Z,23.33
2022-12-15T07:19:01.251Z,24.27
2022-12-15T07:21:28.180Z,21.08
2022-12-15T07:23:56.611Z,24.00
2022-12-15T07:26:25.087Z,25.65
2022-12-15T07:28:53.298Z,33.42
2022-12-15T07:31:20.389Z,32.83
2022-12-15T07:33:48.160Z,27.52
2022-12-15T07:36:15.535Z,27.58
2022-12-15T07:38:42.723Z,25.17
2022-12-15T07:41:10.185Z,26.98
2022-12-15T07:43:38.111Z,25.40
2022-12-15T07:46:05.832Z,27.48
2022-12-15T07:48:33.564Z,27.17
2022-12-15T07:51:17.174Z,27.70
2022-12-15T07:53:46.732Z,28.00
2022-12-15T07:56:13.966Z,25.27
2022-12-15T07:58:41.943Z,25.10
2022-12-15T08:01:12.817Z,25.98
2022-12-15T08:03:40.650Z,22.65
2022-12-15T08:06:11.984Z,26.17
2022-12-15T08:08:40.280Z,24.05
2022-12-15T08:11:10.150Z,24.63
2022-12-15T08:16:26.181Z,27.65
2022-12-15T08:18:53.706Z,22.80
2022-12-15T08:21:20.661Z,28.90
2022-12-15T08:23:47.939Z,23.33
2022-12-15T08:26:17.745Z,25.17
2022-12-15T08:28:45.950Z,25.00
2022-12-15T08:31:20.172Z,30.58
2022-12-15T08:33:48.074Z,24.00
2022-12-15T08:36:19.223Z,25.27
2022-12-15T08:38:47.166Z,25.30
2022-12-15T08:41:32.241Z,31.83
2022-12-15T08:44:01.281Z,27.20
2022-12-15T08:46:33.784Z,26.10
2022-12-15T08:49:02.571Z,26.08
2022-12-15T08:51:32.187Z,24.70
2022-12-15T08:54:00.987Z,25.10
2022-12-15T08:56:29.008Z,28.20
2022-12-15T08:58:59.434Z,30.23
2022-12-15T09:01:28.916Z,29.25
2022-12-15T09:03:57.314Z,29.65
2022-12-15T09:06:33.999Z,26.33
2022-12-15T09:09:07.278Z,31.65
2022-12-15T09:11:34.858Z,31.27
2022-12-15T09:14:01.733Z,27.15
2022-12-15T09:16:28.928Z,33.90
2022-12-15T09:18:58.709Z,30.00
2022-12-15T09:21:28.622Z,30.02
2022-12-15T09:24:01.337Z,33.88
2022-12-15T09:26:31.887Z,32.17
2022-12-15T09:28:58.994Z,30.92
2022-12-15T09:31:29.918Z,32.67
2022-12-15T09:33:59.178Z,32.30
2022-12-15T09:36:28.186Z,43.13
2022-12-15T09:38:55.283Z,29.88
2022-12-15T09:41:29.361Z,33.92
2022-12-15T09:44:10.274Z,32.42
2022-12-15T09:46:57.378Z,34.70
2022-12-15T09:49:45.141Z,30.75
2022-12-15T09:52:22.272Z,30.77
2022-12-15T09:54:49.421Z,35.08
2022-12-15T09:57:25.858Z,33.67
2022-12-15T10:00:30.967Z,30.20
2022-12-15T10:03:23.799Z,32.30
2022-12-15T10:06:16.518Z,33.90
2022-12-15T10:08:59.947Z,30.45
2022-12-15T10:11:43.932Z,30.02
2022-12-15T10:14:42.647Z,36.78
2022-12-15T10:17:39.444Z,31.25
2022-12-15T10:20:28.824Z,32.42
2022-12-15T10:23:02.904Z,31.85
2022-12-15T10:25:31.851Z,36.92
2022-12-15T10:28:30.418Z,36.67
2022-12-15T10:31:12.822Z,34.90
2022-12-15T10:33:47.052Z,33.78
2022-12-15T10:36:17.050Z,34.45
2022-12-15T10:41:34.457Z,38.45
2022-12-15T10:44:02.689Z,32.83
2022-12-15T10:46:31.830Z,30.67
2022-12-15T10:49:24.135Z,32.38
2022-12-15T10:52:00.489Z,34.55
2022-12-15T10:54:45.718Z,32.58
2022-12-15T10:57:27.666Z,35.65
2022-12-15T11:00:00.521Z,35.22
2022-12-15T11:02:36.664Z,31.05
2022-12-15T11:05:17.019Z,34.83
2022-12-15T11:07:56.136Z,33.03
2022-12-15T11:10:48.838Z,37.78
2022-12-15T11:13:20.725Z,34.03
2022-12-15T11:15:55.127Z,32.58
2022-12-15T11:18:44.604Z,30.67
2022-12-15T11:21:25.229Z,33.97
2022-12-15T11:24:18.266Z,34.05
2022-12-15T11:27:01.630Z,34.63
2022-12-15T11:30:15.634Z,34.60
2022-12-15T11:32:55.617Z,32.20
2022-12-15T11:35:52.135Z,35.20
2022-12-15T11:38:52.598Z,37.40
2022-12-15T11:41:57.359Z,35.15
2022-12-15T11:45:02.421Z,40.38
2022-12-15T11:48:17.191Z,32.28
2022-12-15T11:51:05.203Z,33.78
2022-12-15T11:54:27.209Z,33.15
2022-12-15T11:57:11.486Z,33.45
2022-12-15T12:00:02.181Z,30.73
2022-12-15T12:03:30.541Z,34.05
2022-12-15T12:06:18.967Z,32.22
2022-12-15T12:09:00.981Z,31.48
2022-12-15T12:11:50.422Z,34.70
2022-12-15T12:14:41.668Z,33.28
2022-12-15T12:17:31.184Z,29.83
2022-12-15T12:20:14.520Z,29.20
2022-12-15T12:23:04.600Z,33.78
2022-12-15T12:25:43.106Z,32.50
2022-12-15T12:28:41.012Z,30.45
2022-12-15T12:31:26.345Z,31.90
2022-12-15T12:34:01.454Z,30.83
2022-12-15T12:36:28.333Z,33.13
2022-12-15T12:38:59.060Z,32.63
2022-12-15T12:41:49.276Z,34.72
2022-12-15T12:44:22.510Z,33.30
2022-12-15T12:46:55.622Z,32.22
2022-12-15T12:49:42.732Z,33.92
2022-12-15T12:52:37.946Z,39.45
2022-12-15T12:55:14.901Z,32.92
2022-12-15T12:57:43.695Z,32.72
2022-12-15T13:00:28.450Z,33.45
2022-12-15T13:03:21.020Z,36.58
2022-12-15T13:05:50.905Z,34.88
2022-12-15T13:08:52.548Z,35.85
2022-12-15T13:11:49.084Z,38.47
2022-12-15T13:14:26.418Z,33.88
2022-12-15T13:17:43.817Z,33.35
2022-12-15T13:20:24.519Z,35.08
2022-12-15T13:22:52.335Z,31.67
2022-12-15T13:25:41.837Z,31.98
2022-12-15T13:28:40.164Z,36.17
2022-12-15T13:31:20.631Z,33.60
2022-12-15T13:33:50.606Z,31.90
2022-12-15T13:36:39.278Z,34.70
2022-12-15T13:39:12.427Z,33.63
2022-12-15T13:45:03.910Z,31.83
2022-12-15T13:47:31.083Z,31.23
2022-12-15T13:50:15.162Z,31.75
2022-12-15T13:55:40.041Z,31.77
2022-12-15T13:58:14.818Z,30.20
2022-12-15T14:00:56.993Z,30.00
2022-12-15T14:03:25.299Z,30.25
2022-12-15T14:05:59.316Z,30.98
2022-12-15T14:08:30.827Z,35.90
2022-12-15T14:11:16.491Z,29.52
2022-12-15T14:13:54.102Z,33.60
2022-12-15T14:16:23.249Z,31.50
2022-12-15T14:19:16.081Z,34.25
2022-12-15T14:21:55.520Z,31.42
2022-12-15T14:24:39.639Z,30.15
2022-12-15T14:27:07.485Z,32.20
2022-12-15T14:29:34.644Z,27.02
2022-12-15T14:32:02.243Z,32.17
2022-12-15T14:37:34.926Z,33.92
2022-12-15T14:40:02.015Z,29.65
2022-12-15T14:42:31.016Z,32.78
2022-12-15T14:44:58.563Z,33.33
2022-12-15T14:47:30.681Z,30.65
2022-12-15T14:50:01.158Z,28.27
2022-12-15T14:52:36.302Z,31.65
2022-12-15T14:55:32.983Z,30.85
2022-12-15T14:58:00.560Z,33.13
2022-12-15T15:00:35.637Z,33.83
2022-12-15T15:03:04.488Z,30.15
2022-12-15T15:03:18.166Z,31.20
2022-12-15T15:05:51.719Z,29.85
2022-12-15T15:08:41.485Z,32.13
2022-12-15T15:11:29.454Z,31.58
2022-12-15T15:14:00.618Z,30.40
2022-12-15T15:16:28.135Z,30.52
2022-12-15T15:18:57.006Z,32.78
2022-12-15T15:21:29.607Z,32.85
2022-12-15T15:24:25.717Z,34.72
2022-12-15T15:26:53.314Z,30.98
2022-12-15T15:29:41.197Z,33.55
2022-12-15T15:32:22.919Z,31.40
2022-12-15T15:34:50.253Z,35.90
2022-12-15T15:37:25.134Z,32.22
2022-12-15T15:39:55.027Z,35.35
2022-12-15T15:42:25.484Z,33.60
2022-12-15T15:44:57.555Z,31.60
2022-12-15T15:47:26.044Z,31.70
2022-12-15T15:49:55.594Z,35.35
2022-12-15T15:52:22.929Z,31.73
2022-12-15T15:54:50.865Z,33.30
2022-12-15T15:57:18.842Z,31.98
2022-12-15T15:59:46.874Z,33.75
2022-12-15T16:02:14.751Z,36.78
2022-12-15T16:04:43.449Z,34.95
2022-12-15T16:07:25.499Z,35.53
2022-12-15T16:09:54.196Z,38.55
2022-12-15T16:12:42.585Z,36.17
2022-12-15T16:15:23.006Z,37.75
2022-12-15T16:17:50.269Z,39.97
2022-12-15T16:20:20.036Z,39.78
2022-12-15T16:23:11.174Z,42.67
2022-12-15T16:25:50.056Z,41.55
2022-12-15T16:28:26.885Z,39.00
2022-12-15T16:30:55.387Z,41.78
2022-12-15T16:33:22.286Z,39.65
2022-12-15T16:35:50.619Z,40.38
2022-12-15T16:38:30.704Z,41.47
2022-12-15T16:41:06.531Z,40.25
2022-12-15T16:43:38.195Z,38.80
2022-12-15T16:46:07.366Z,37.05
2022-12-15T16:48:34.684Z,41.25
2022-12-15T16:51:02.542Z,39.97
2022-12-15T16:53:34.114Z,42.22
2022-12-15T16:56:06.504Z,39.28
2022-12-15T16:58:35.972Z,38.95
2022-12-15T17:01:03.841Z,46.80
2022-12-15T17:03:31.016Z,37.47
2022-12-15T17:06:03.842Z,38.17
2022-12-15T17:08:50.402Z,40.47
2022-12-15T17:11:22.089Z,41.97
2022-12-15T17:13:56.081Z,37.30
2022-12-15T17:16:25.785Z,42.92
2022-12-15T17:18:53.140Z,41.28
2022-12-15T17:21:28.907Z,39.58
2022-12-15T17:24:03.947Z,43.00
2022-12-15T17:26:35.102Z,40.05
2022-12-15T17:29:09.353Z,41.50
2022-12-15T17:31:36.441Z,42.72
2022-12-15T17:34:28.226Z,43.58
2022-12-15T17:36:59.055Z,40.63
2022-12-15T17:39:27.458Z,43.42
2022-12-15T17:42:02.798Z,43.45
2022-12-15T17:44:36.830Z,40.28
2022-12-15T17:47:08.533Z,38.67
2022-12-15T17:49:37.773Z,40.20
2022-12-15T17:52:26.012Z,36.40
2022-12-15T17:54:53.584Z,43.80
2022-12-15T17:57:20.556Z,44.58
2022-12-15T17:59:47.663Z,44.92
2022-12-15T18:02:15.572Z,45.72
2022-12-15T18:04:43.164Z,44.45
2022-12-15T18:07:23.362Z,39.05
2022-12-15T18:09:52.003Z,45.83
2022-12-15T18:12:27.412Z,46.10
2022-12-15T18:14:55.923Z,48.28
2022-12-15T18:17:23.817Z,44.55
2022-12-15T18:19:50.755Z,45.97
2022-12-15T18:22:26.855Z,45.10
2022-12-15T18:24:54.566Z,44.10
2022-12-15T18:27:27.899Z,45.33
2022-12-15T18:29:56.467Z,51.45
2022-12-15T18:32:26.879Z,53.78
2022-12-15T18:34:54.789Z,45.67
2022-12-15T18:37:24.841Z,46.00
2022-12-15T18:39:52.272Z,55.85
2022-12-15T18:42:21.669Z,45.40
2022-12-15T18:44:52.208Z,48.00
2022-12-15T18:47:22.919Z,49.47
2022-12-15T18:49:50.156Z,53.47
2022-12-15T18:52:22.625Z,54.17
2022-12-15T18:54:52.303Z,45.78
2022-12-15T18:57:35.744Z,49.97
2022-12-15T19:00:27.845Z,53.97
2022-12-15T19:02:59.880Z,48.92
2022-12-15T19:05:28.865Z,46.35
2022-12-15T19:08:03.269Z,53.63
2022-12-15T19:10:34.251Z,53.65
2022-12-15T19:13:01.247Z,53.88
2022-12-15T19:15:28.826Z,48.00
2022-12-15T19:18:14.622Z,49.72
2022-12-15T19:21:01.281Z,48.45
2022-12-15T19:23:28.166Z,49.03
2022-12-15T19:25:55.080Z,53.20
2022-12-15T19:28:24.056Z,55.00
2022-12-15T19:30:54.671Z,56.60
2022-12-15T19:33:21.857Z,51.60
2022-12-15T19:35:51.399Z,60.85
2022-12-15T19:38:30.108Z,66.07
2022-12-15T19:40:59.687Z,58.38
2022-12-15T19:43:27.451Z,53.00
2022-12-15T19:45:54.824Z,53.20
2022-12-15T19:48:24.132Z,50.08
2022-12-15T19:50:52.324Z,50.25
2022-12-15T19:53:29.772Z,50.83
2022-12-15T19:56:01.472Z,45.97
2022-12-15T19:58:35.005Z,48.47
2022-12-15T20:01:10.771Z,46.90
2022-12-15T20:03:38.848Z,49.95
2022-12-15T20:06:31.736Z,48.83
2022-12-15T20:08:59.864Z,47.72
2022-12-15T20:11:32.605Z,48.88
2022-12-15T20:14:01.581Z,49.55
2022-12-15T20:16:28.643Z,49.53
2022-12-15T20:18:56.147Z,47.58
2022-12-15T20:21:31.242Z,50.95
2022-12-15T20:24:05.151Z,46.95
2022-12-15T20:26:32.077Z,45.92
2022-12-15T20:28:59.275Z,49.90
2022-12-15T20:31:26.794Z,47.33
2022-12-15T20:33:54.151Z,44.42
2022-12-15T20:36:31.091Z,49.28
2022-12-15T20:38:58.105Z,50.80
2022-12-15T20:41:28.745Z,48.13
2022-12-15T20:43:57.714Z,50.25
2022-12-15T20:46:34.753Z,47.22
2022-12-15T20:49:02.318Z,51.08
2022-12-15T20:51:32.707Z,47.70
2022-12-15T20:54:02.806Z,50.30
2022-12-15T20:56:30.158Z,47.40
2022-12-15T20:58:59.362Z,50.65
2022-12-15T21:01:32.798Z,50.63
2022-12-15T21:04:04.118Z,45.00
2022-12-15T21:06:31.140Z,48.53
2022-12-15T21:08:58.073Z,48.42
2022-12-15T21:11:28.496Z,49.65
2022-12-15T21:13:58.780Z,49.05
2022-12-15T21:16:30.783Z,50.88
2022-12-15T21:21:51.977Z,51.75
2022-12-15T21:24:25.784Z,48.90
2022-12-15T21:26:52.874Z,46.55
2022-12-15T21:29:27.965Z,47.58
2022-12-15T21:31:54.964Z,54.15
2022-12-15T21:34:22.531Z,48.20
2022-12-15T21:36:55.186Z,51.28
2022-12-15T21:39:29.631Z,51.08
2022-12-15T21:42:00.666Z,48.78
2022-12-15T21:44:27.588Z,44.17
2022-12-15T21:46:54.766Z,46.67
2022-12-15T21:49:22.059Z,49.70
2022-12-15T21:51:59.814Z,51.47
2022-12-15T21:54:32.331Z,50.45
2022-12-15T21:57:02.719Z,47.72
2022-12-15T21:59:32.387Z,49.08
2022-12-15T22:02:27.184Z,46.97
2022-12-15T22:04:55.023Z,45.63
2022-12-15T22:07:21.994Z,56.67
2022-12-15T22:09:48.891Z,47.20
2022-12-15T22:12:20.861Z,48.90
2022-12-15T22:14:47.994Z,46.08
2022-12-15T22:17:21.508Z,43.75
2022-12-15T22:19:48.454Z,48.85
2022-12-15T22:22:16.523Z,47.15
2022-12-15T22:24:43.827Z,50.20
2022-12-15T22:27:22.483Z,48.67
2022-12-15T22:29:50.331Z,48.47
2022-12-15T22:32:17.234Z,51.42
2022-12-15T22:34:44.140Z,48.70
2022-12-15T22:37:10.951Z,45.60
2022-12-15T22:39:37.690Z,48.63
2022-12-15T22:42:05.719Z,50.10
2022-12-15T22:44:37.227Z,50.65
2022-12-15T22:47:05.951Z,51.67
2022-12-15T22:49:38.081Z,43.38
2022-12-15T22:52:20.554Z,48.85
2022-12-15T22:54:48.062Z,49.50
2022-12-15T22:57:25.067Z,48.17
2022-12-15T23:00:03.114Z,48.25
2022-12-15T23:02:36.523Z,51.67
2022-12-15T23:05:05.605Z,47.38
2022-12-15T23:07:34.038Z,46.88
2022-12-15T23:10:19.510Z,51.33
2022-12-15T23:12:46.383Z,54.50
2022-12-15T23:15:31.913Z,54.30
2022-12-15T23:17:58.708Z,52.55
2022-12-15T23:20:25.558Z,50.67
2022-12-15T23:22:52.319Z,49.22
2022-12-15T23:25:21.563Z,47.25
2022-12-15T23:27:48.383Z,47.17
2022-12-15T23:30:15.908Z,47.35
2022-12-15T23:32:43.257Z,45.17
2022-12-15T23:35:10.230Z,49.53
2022-12-15T23:37:37.031Z,49.40
2022-12-15T23:40:05.436Z,51.22
2022-12-15T23:42:32.312Z,48.03
2022-12-15T23:44:59.181Z,49.15
2022-12-15T23:47:26.041Z,50.22
2022-12-15T23:49:53.066Z,48.10
2022-12-15T23:52:20.576Z,48.92
2022-12-15T23:54:47.407Z,49.28
2022-12-15T23:57:14.209Z,44.30
2022-12-15T23:59:40.968Z,49.30
